sensor_id;sensor_type;location;lat;lon;timestamp;P1;durP1;ratioP1;P2;durP2;ratioP2
23470;SDS011;11908;50.806;4.424;2023-02-15T00:02:13;66.85;;;37.63;;
23470;SDS011;11908;50.806;4.424;2023-02-15T00:04:39;58.40;;;33.15;;
23470;SDS011;11908;50.806;4.424;2023-02-15T00:07:14;75.38;;;37.92;;
23470;SDS011;11908;50.806;4.424;2023-02-15T00:09:41;66.63;;;36.53;;
23470;SDS011;11908;50.806;4.424;2023-02-15T00:12:08;63.13;;;36.08;;
23470;SDS011;11908;50.806;4.424;2023-02-15T00:14:34;68.95;;;37.00;;
23470;SDS011;11908;50.806;4.424;2023-02-15T00:17:00;72.18;;;39.00;;
23470;SDS011;11908;50.806;4.424;2023-02-15T00:19:26;69.93;;;38.72;;
23470;SDS011;11908;50.806;4.424;2023-02-15T00:21:51;74.03;;;39.28;;
23470;SDS011;11908;50.806;4.424;2023-02-15T00:24:17;71.25;;;39.95;;
23470;SDS011;11908;50.806;4.424;2023-02-15T00:26:45;83.57;;;42.33;;
23470;SDS011;11908;50.806;4.424;2023-02-15T00:29:12;73.53;;;37.08;;
23470;SDS011;11908;50.806;4.424;2023-02-15T00:31:38;66.45;;;35.90;;
23470;SDS011;11908;50.806;4.424;2023-02-15T00:34:10;74.00;;;40.47;;
23470;SDS011;11908;50.806;4.424;2023-02-15T00:36:38;63.63;;;37.50;;
23470;SDS011;11908;50.806;4.424;2023-02-15T00:39:04;71.50;;;37.10;;
23470;SDS011;11908;50.806;4.424;2023-02-15T00:41:30;65.97;;;36.40;;
23470;SDS011;11908;50.806;4.424;2023-02-15T00:43:56;65.13;;;37.13;;
23470;SDS011;11908;50.806;4.424;2023-02-15T00:46:22;72.07;;;39.67;;
23470;SDS011;11908;50.806;4.424;2023-02-15T00:48:48;76.25;;;40.05;;
23470;SDS011;11908;50.806;4.424;2023-02-15T00:51:14;65.35;;;37.13;;
23470;SDS011;11908;50.806;4.424;2023-02-15T00:53:40;64.10;;;38.53;;
23470;SDS011;11908;50.806;4.424;2023-02-15T00:56:07;77.30;;;42.33;;
23470;SDS011;11908;50.806;4.424;2023-02-15T00:58:32;76.68;;;41.63;;
23470;SDS011;11908;50.806;4.424;2023-02-15T01:01:03;77.68;;;42.55;;
23470;SDS011;11908;50.806;4.424;2023-02-15T01:03:33;73.55;;;41.88;;
23470;SDS011;11908;50.806;4.424;2023-02-15T01:05:59;71.55;;;40.25;;
23470;SDS011;11908;50.806;4.424;2023-02-15T01:08:25;72.20;;;40.22;;
23470;SDS011;11908;50.806;4.424;2023-02-15T01:10:51;73.47;;;39.47;;
23470;SDS011;11908;50.806;4.424;2023-02-15T01:13:17;76.88;;;40.22;;
23470;SDS011;11908;50.806;4.424;2023-02-15T01:15:43;69.30;;;39.42;;
23470;SDS011;11908;50.806;4.424;2023-02-15T01:18:09;68.63;;;39.13;;
23470;SDS011;11908;50.806;4.424;2023-02-15T01:20:37;70.78;;;37.90;;
23470;SDS011;11908;50.806;4.424;2023-02-15T01:23:05;77.80;;;39.67;;
23470;SDS011;11908;50.806;4.424;2023-02-15T01:25:32;68.65;;;37.88;;
23470;SDS011;11908;50.806;4.424;2023-02-15T01:27:59;82.13;;;40.25;;
23470;SDS011;11908;50.806;4.424;2023-02-15T01:30:24;76.53;;;38.85;;
23470;SDS011;11908;50.806;4.424;2023-02-15T01:32:50;74.10;;;39.22;;
23470;SDS011;11908;50.806;4.424;2023-02-15T01:35:16;77.50;;;40.85;;
23470;SDS011;11908;50.806;4.424;2023-02-15T01:37:42;75.00;;;39.40;;
23470;SDS011;11908;50.806;4.424;2023-02-15T01:40:09;69.47;;;38.95;;
23470;SDS011;11908;50.806;4.424;2023-02-15T01:42:38;72.00;;;38.70;;
23470;SDS011;11908;50.806;4.424;2023-02-15T01:45:16;74.75;;;40.13;;
23470;SDS011;11908;50.806;4.424;2023-02-15T01:50:47;68.30;;;39.25;;
23470;SDS011;11908;50.806;4.424;2023-02-15T01:58:26;74.20;;;39.72;;
23470;SDS011;11908;50.806;4.424;2023-02-15T02:00:54;71.85;;;38.78;;
23470;SDS011;11908;50.806;4.424;2023-02-15T02:03:24;70.30;;;39.05;;
23470;SDS011;11908;50.806;4.424;2023-02-15T02:06:01;69.93;;;39.42;;
23470;SDS011;11908;50.806;4.424;2023-02-15T02:08:27;69.75;;;36.95;;
23470;SDS011;11908;50.806;4.424;2023-02-15T02:10:53;67.57;;;38.42;;
23470;SDS011;11908;50.806;4.424;2023-02-15T02:13:19;71.68;;;38.75;;
23470;SDS011;11908;50.806;4.424;2023-02-15T02:15:54;72.93;;;41.60;;
23470;SDS011;11908;50.806;4.424;2023-02-15T02:23:51;71.20;;;40.03;;
23470;SDS011;11908;50.806;4.424;2023-02-15T02:35:17;70.88;;;39.28;;
23470;SDS011;11908;50.806;4.424;2023-02-15T02:42:46;65.38;;;38.28;;
23470;SDS011;11908;50.806;4.424;2023-02-15T02:45:21;68.60;;;38.40;;
23470;SDS011;11908;50.806;4.424;2023-02-15T02:48:10;68.20;;;37.67;;
23470;SDS011;11908;50.806;4.424;2023-02-15T02:50:40;68.43;;;37.60;;
23470;SDS011;11908;50.806;4.424;2023-02-15T02:53:06;68.53;;;38.50;;
23470;SDS011;11908;50.806;4.424;2023-02-15T02:58:28;61.22;;;36.72;;
23470;SDS011;11908;50.806;4.424;2023-02-15T03:01:03;66.82;;;35.05;;
23470;SDS011;11908;50.806;4.424;2023-02-15T03:03:45;64.35;;;36.20;;
23470;SDS011;11908;50.806;4.424;2023-02-15T03:06:35;65.47;;;36.25;;
23470;SDS011;11908;50.806;4.424;2023-02-15T03:09:11;71.40;;;39.10;;
23470;SDS011;11908;50.806;4.424;2023-02-15T03:14:09;69.45;;;38.08;;
23470;SDS011;11908;50.806;4.424;2023-02-15T03:16:37;68.88;;;37.83;;
23470;SDS011;11908;50.806;4.424;2023-02-15T03:19:06;70.60;;;36.15;;
23470;SDS011;11908;50.806;4.424;2023-02-15T03:21:38;68.68;;;36.28;;
23470;SDS011;11908;50.806;4.424;2023-02-15T03:24:15;71.40;;;39.20;;
23470;SDS011;11908;50.806;4.424;2023-02-15T03:26:45;64.95;;;37.40;;
23470;SDS011;11908;50.806;4.424;2023-02-15T03:29:15;65.32;;;36.03;;
23470;SDS011;11908;50.806;4.424;2023-02-15T03:31:45;69.28;;;38.00;;
23470;SDS011;11908;50.806;4.424;2023-02-15T03:34:13;65.22;;;35.47;;
23470;SDS011;11908;50.806;4.424;2023-02-15T03:44:54;72.68;;;37.35;;
23470;SDS011;11908;50.806;4.424;2023-02-15T03:47:31;68.78;;;34.80;;
23470;SDS011;11908;50.806;4.424;2023-02-15T03:50:05;63.03;;;35.67;;
23470;SDS011;11908;50.806;4.424;2023-02-15T03:52:53;72.38;;;38.10;;
23470;SDS011;11908;50.806;4.424;2023-02-15T03:55:21;69.88;;;36.28;;
23470;SDS011;11908;50.806;4.424;2023-02-15T03:57:46;63.70;;;35.80;;
23470;SDS011;11908;50.806;4.424;2023-02-15T04:00:31;66.28;;;35.58;;
23470;SDS011;11908;50.806;4.424;2023-02-15T04:03:33;64.97;;;35.05;;
23470;SDS011;11908;50.806;4.424;2023-02-15T04:06:22;68.00;;;36.85;;
23470;SDS011;11908;50.806;4.424;2023-02-15T04:08:47;72.95;;;39.13;;
23470;SDS011;11908;50.806;4.424;2023-02-15T04:11:32;65.50;;;34.95;;
23470;SDS011;11908;50.806;4.424;2023-02-15T04:13:58;66.70;;;36.33;;
23470;SDS011;11908;50.806;4.424;2023-02-15T04:16:24;64.85;;;37.15;;
23470;SDS011;11908;50.806;4.424;2023-02-15T04:18:50;67.80;;;35.67;;
23470;SDS011;11908;50.806;4.424;2023-02-15T04:21:34;61.60;;;36.25;;
23470;SDS011;11908;50.806;4.424;2023-02-15T04:24:18;69.35;;;35.83;;
23470;SDS011;11908;50.806;4.424;2023-02-15T04:27:03;65.55;;;37.67;;
23470;SDS011;11908;50.806;4.424;2023-02-15T04:29:30;64.28;;;35.53;;
23470;SDS011;11908;50.806;4.424;2023-02-15T04:31:57;71.72;;;35.30;;
23470;SDS011;11908;50.806;4.424;2023-02-15T04:34:24;65.15;;;36.53;;
23470;SDS011;11908;50.806;4.424;2023-02-15T04:36:50;66.22;;;35.78;;
23470;SDS011;11908;50.806;4.424;2023-02-15T04:39:16;63.35;;;34.70;;
23470;SDS011;11908;50.806;4.424;2023-02-15T04:41:43;64.47;;;36.50;;
23470;SDS011;11908;50.806;4.424;2023-02-15T04:44:09;67.75;;;36.33;;
23470;SDS011;11908;50.806;4.424;2023-02-15T04:46:35;73.93;;;36.25;;
23470;SDS011;11908;50.806;4.424;2023-02-15T04:49:01;62.45;;;35.30;;
23470;SDS011;11908;50.806;4.424;2023-02-15T04:51:27;60.78;;;35.00;;
23470;SDS011;11908;50.806;4.424;2023-02-15T04:53:53;63.75;;;35.72;;
23470;SDS011;11908;50.806;4.424;2023-02-15T04:56:19;61.92;;;35.50;;
23470;SDS011;11908;50.806;4.424;2023-02-15T04:58:45;64.13;;;35.17;;
23470;SDS011;11908;50.806;4.424;2023-02-15T05:01:11;68.68;;;36.47;;
23470;SDS011;11908;50.806;4.424;2023-02-15T05:03:37;65.70;;;35.58;;
23470;SDS011;11908;50.806;4.424;2023-02-15T05:06:03;65.60;;;37.70;;
23470;SDS011;11908;50.806;4.424;2023-02-15T05:08:29;64.47;;;36.25;;
23470;SDS011;11908;50.806;4.424;2023-02-15T05:10:55;62.60;;;34.40;;
23470;SDS011;11908;50.806;4.424;2023-02-15T05:13:21;64.40;;;35.05;;
23470;SDS011;11908;50.806;4.424;2023-02-15T05:15:50;61.20;;;35.78;;
23470;SDS011;11908;50.806;4.424;2023-02-15T05:18:17;61.08;;;35.25;;
23470;SDS011;11908;50.806;4.424;2023-02-15T05:20:43;66.53;;;35.55;;
23470;SDS011;11908;50.806;4.424;2023-02-15T05:23:09;59.65;;;34.22;;
23470;SDS011;11908;50.806;4.424;2023-02-15T05:25:35;67.45;;;36.53;;
23470;SDS011;11908;50.806;4.424;2023-02-15T05:28:19;65.95;;;35.13;;
23470;SDS011;11908;50.806;4.424;2023-02-15T05:30:49;66.47;;;36.60;;
23470;SDS011;11908;50.806;4.424;2023-02-15T05:33:23;66.38;;;35.72;;
23470;SDS011;11908;50.806;4.424;2023-02-15T05:35:48;64.68;;;36.03;;
23470;SDS011;11908;50.806;4.424;2023-02-15T05:38:14;66.30;;;35.90;;
23470;SDS011;11908;50.806;4.424;2023-02-15T05:40:40;73.38;;;38.08;;
23470;SDS011;11908;50.806;4.424;2023-02-15T05:43:05;63.25;;;37.72;;
23470;SDS011;11908;50.806;4.424;2023-02-15T05:45:31;68.60;;;39.00;;
23470;SDS011;11908;50.806;4.424;2023-02-15T05:47:57;69.72;;;39.15;;
23470;SDS011;11908;50.806;4.424;2023-02-15T05:50:23;68.63;;;39.17;;
23470;SDS011;11908;50.806;4.424;2023-02-15T05:52:50;73.97;;;40.22;;
23470;SDS011;11908;50.806;4.424;2023-02-15T05:55:16;69.65;;;38.15;;
23470;SDS011;11908;50.806;4.424;2023-02-15T05:57:41;70.50;;;39.08;;
23470;SDS011;11908;50.806;4.424;2023-02-15T06:00:07;70.00;;;38.50;;
23470;SDS011;11908;50.806;4.424;2023-02-15T06:02:35;66.07;;;37.28;;
23470;SDS011;11908;50.806;4.424;2023-02-15T06:05:02;73.10;;;38.67;;
23470;SDS011;11908;50.806;4.424;2023-02-15T06:07:28;69.43;;;39.97;;
23470;SDS011;11908;50.806;4.424;2023-02-15T06:09:54;65.93;;;37.90;;
23470;SDS011;11908;50.806;4.424;2023-02-15T06:12:19;73.28;;;36.05;;
23470;SDS011;11908;50.806;4.424;2023-02-15T06:14:45;67.65;;;37.67;;
23470;SDS011;11908;50.806;4.424;2023-02-15T06:17:11;74.28;;;37.60;;
23470;SDS011;11908;50.806;4.424;2023-02-15T06:19:36;71.32;;;38.72;;
23470;SDS011;11908;50.806;4.424;2023-02-15T06:22:02;71.28;;;39.35;;
23470;SDS011;11908;50.806;4.424;2023-02-15T06:24:28;70.80;;;39.40;;
23470;SDS011;11908;50.806;4.424;2023-02-15T06:26:54;74.20;;;39.97;;
23470;SDS011;11908;50.806;4.424;2023-02-15T06:29:19;65.13;;;38.55;;
23470;SDS011;11908;50.806;4.424;2023-02-15T06:31:45;68.03;;;38.05;;
23470;SDS011;11908;50.806;4.424;2023-02-15T06:34:11;83.57;;;40.78;;
23470;SDS011;11908;50.806;4.424;2023-02-15T06:36:37;74.25;;;39.95;;
23470;SDS011;11908;50.806;4.424;2023-02-15T06:39:03;71.95;;;37.88;;
23470;SDS011;11908;50.806;4.424;2023-02-15T06:41:29;76.93;;;38.75;;
23470;SDS011;11908;50.806;4.424;2023-02-15T06:43:55;83.65;;;41.70;;
23470;SDS011;11908;50.806;4.424;2023-02-15T06:46:21;88.97;;;39.55;;
23470;SDS011;11908;50.806;4.424;2023-02-15T06:48:46;82.97;;;39.03;;
23470;SDS011;11908;50.806;4.424;2023-02-15T06:51:12;102.82;;;40.17;;
23470;SDS011;11908;50.806;4.424;2023-02-15T06:53:38;97.28;;;40.10;;
23470;SDS011;11908;50.806;4.424;2023-02-15T06:56:07;112.18;;;41.58;;
23470;SDS011;11908;50.806;4.424;2023-02-15T06:58:34;109.18;;;41.92;;
23470;SDS011;11908;50.806;4.424;2023-02-15T07:01:00;92.85;;;41.17;;
23470;SDS011;11908;50.806;4.424;2023-02-15T07:03:26;118.45;;;39.65;;
23470;SDS011;11908;50.806;4.424;2023-02-15T07:05:55;119.28;;;41.22;;
23470;SDS011;11908;50.806;4.424;2023-02-15T07:08:22;89.30;;;38.38;;
23470;SDS011;11908;50.806;4.424;2023-02-15T07:10:49;99.05;;;40.30;;
23470;SDS011;11908;50.806;4.424;2023-02-15T07:13:15;88.95;;;41.40;;
23470;SDS011;11908;50.806;4.424;2023-02-15T07:15:41;87.00;;;41.53;;
23470;SDS011;11908;50.806;4.424;2023-02-15T07:18:07;201.02;;;45.83;;
23470;SDS011;11908;50.806;4.424;2023-02-15T07:20:34;165.18;;;44.67;;
23470;SDS011;11908;50.806;4.424;2023-02-15T07:23:00;302.60;;;53.58;;
23470;SDS011;11908;50.806;4.424;2023-02-15T07:25:26;129.90;;;42.25;;
23470;SDS011;11908;50.806;4.424;2023-02-15T07:27:59;137.13;;;44.95;;
23470;SDS011;11908;50.806;4.424;2023-02-15T07:30:26;82.15;;;41.05;;
23470;SDS011;11908;50.806;4.424;2023-02-15T07:32:56;76.68;;;40.40;;
23470;SDS011;11908;50.806;4.424;2023-02-15T07:35:48;73.65;;;40.42;;
23470;SDS011;11908;50.806;4.424;2023-02-15T07:38:18;99.80;;;42.95;;
23470;SDS011;11908;50.806;4.424;2023-02-15T07:40:44;90.28;;;42.47;;
23470;SDS011;11908;50.806;4.424;2023-02-15T07:43:10;100.95;;;42.22;;
23470;SDS011;11908;50.806;4.424;2023-02-15T07:45:36;93.07;;;42.88;;
23470;SDS011;11908;50.806;4.424;2023-02-15T07:48:03;85.97;;;39.47;;
23470;SDS011;11908;50.806;4.424;2023-02-15T07:50:29;72.38;;;38.10;;
23470;SDS011;11908;50.806;4.424;2023-02-15T07:52:55;89.32;;;38.60;;
23470;SDS011;11908;50.806;4.424;2023-02-15T07:55:21;74.75;;;38.95;;
23470;SDS011;11908;50.806;4.424;2023-02-15T07:57:48;71.95;;;36.25;;
23470;SDS011;11908;50.806;4.424;2023-02-15T08:00:15;78.78;;;37.60;;
23470;SDS011;11908;50.806;4.424;2023-02-15T08:02:49;68.18;;;35.92;;
23470;SDS011;11908;50.806;4.424;2023-02-15T08:05:41;67.80;;;35.50;;
23470;SDS011;11908;50.806;4.424;2023-02-15T08:08:08;67.68;;;36.20;;
23470;SDS011;11908;50.806;4.424;2023-02-15T08:10:57;94.15;;;37.70;;
23470;SDS011;11908;50.806;4.424;2023-02-15T08:13:43;68.10;;;36.97;;
23470;SDS011;11908;50.806;4.424;2023-02-15T08:16:19;65.80;;;34.63;;
23470;SDS011;11908;50.806;4.424;2023-02-15T08:18:48;68.47;;;34.90;;
23470;SDS011;11908;50.806;4.424;2023-02-15T08:21:14;62.78;;;33.67;;
23470;SDS011;11908;50.806;4.424;2023-02-15T08:23:40;58.60;;;35.17;;
23470;SDS011;11908;50.806;4.424;2023-02-15T08:26:06;59.65;;;34.13;;
23470;SDS011;11908;50.806;4.424;2023-02-15T08:28:32;55.63;;;33.35;;
23470;SDS011;11908;50.806;4.424;2023-02-15T08:31:07;60.95;;;32.53;;
23470;SDS011;11908;50.806;4.424;2023-02-15T08:33:34;57.63;;;31.55;;
23470;SDS011;11908;50.806;4.424;2023-02-15T08:36:02;66.75;;;32.42;;
23470;SDS011;11908;50.806;4.424;2023-02-15T08:38:29;62.08;;;33.15;;
23470;SDS011;11908;50.806;4.424;2023-02-15T08:40:55;59.53;;;29.17;;
23470;SDS011;11908;50.806;4.424;2023-02-15T08:43:21;48.88;;;26.67;;
23470;SDS011;11908;50.806;4.424;2023-02-15T08:45:47;46.60;;;25.80;;
23470;SDS011;11908;50.806;4.424;2023-02-15T08:48:12;53.53;;;28.30;;
23470;SDS011;11908;50.806;4.424;2023-02-15T08:50:38;57.75;;;28.02;;
23470;SDS011;11908;50.806;4.424;2023-02-15T08:53:04;49.47;;;25.15;;
23470;SDS011;11908;50.806;4.424;2023-02-15T08:55:30;59.55;;;32.50;;
23470;SDS011;11908;50.806;4.424;2023-02-15T08:57:55;69.60;;;31.20;;
23470;SDS011;11908;50.806;4.424;2023-02-15T09:00:22;48.70;;;26.40;;
23470;SDS011;11908;50.806;4.424;2023-02-15T09:02:48;58.50;;;26.95;;
23470;SDS011;11908;50.806;4.424;2023-02-15T09:05:13;49.08;;;25.17;;
23470;SDS011;11908;50.806;4.424;2023-02-15T09:07:39;40.72;;;24.02;;
23470;SDS011;11908;50.806;4.424;2023-02-15T09:10:05;51.20;;;23.67;;
23470;SDS011;11908;50.806;4.424;2023-02-15T09:12:31;66.82;;;24.95;;
23470;SDS011;11908;50.806;4.424;2023-02-15T09:14:57;42.53;;;24.00;;
23470;SDS011;11908;50.806;4.424;2023-02-15T09:17:23;50.08;;;23.83;;
23470;SDS011;11908;50.806;4.424;2023-02-15T09:19:49;42.17;;;22.50;;
23470;SDS011;11908;50.806;4.424;2023-02-15T09:22:14;42.67;;;23.17;;
23470;SDS011;11908;50.806;4.424;2023-02-15T09:24:40;45.97;;;23.33;;
23470;SDS011;11908;50.806;4.424;2023-02-15T09:27:06;40.28;;;23.33;;
23470;SDS011;11908;50.806;4.424;2023-02-15T09:29:32;41.58;;;23.02;;
23470;SDS011;11908;50.806;4.424;2023-02-15T09:31:57;41.70;;;22.00;;
23470;SDS011;11908;50.806;4.424;2023-02-15T09:34:23;39.45;;;22.67;;
23470;SDS011;11908;50.806;4.424;2023-02-15T09:36:49;35.67;;;21.42;;
23470;SDS011;11908;50.806;4.424;2023-02-15T09:39:33;39.95;;;21.00;;
23470;SDS011;11908;50.806;4.424;2023-02-15T09:42:39;40.63;;;21.88;;
23470;SDS011;11908;50.806;4.424;2023-02-15T09:55:33;40.08;;;21.77;;
23470;SDS011;11908;50.806;4.424;2023-02-15T10:08:59;37.10;;;20.52;;
23470;SDS011;11908;50.806;4.424;2023-02-15T10:11:48;38.42;;;21.30;;
23470;SDS011;11908;50.806;4.424;2023-02-15T10:28:04;38.60;;;22.15;;
23470;SDS011;11908;50.806;4.424;2023-02-15T10:33:04;38.83;;;21.55;;
23470;SDS011;11908;50.806;4.424;2023-02-15T10:38:54;35.80;;;21.98;;
23470;SDS011;11908;50.806;4.424;2023-02-15T10:49:30;37.13;;;22.33;;
23470;SDS011;11908;50.806;4.424;2023-02-15T10:52:57;41.92;;;23.23;;
23470;SDS011;11908;50.806;4.424;2023-02-15T10:57:47;40.88;;;20.75;;
23470;SDS011;11908;50.806;4.424;2023-02-15T11:08:49;34.17;;;21.35;;
23470;SDS011;11908;50.806;4.424;2023-02-15T11:11:21;33.50;;;22.48;;
23470;SDS011;11908;50.806;4.424;2023-02-15T11:13:53;35.08;;;21.67;;
23470;SDS011;11908;50.806;4.424;2023-02-15T11:16:32;37.00;;;23.50;;
23470;SDS011;11908;50.806;4.424;2023-02-15T11:19:06;35.72;;;21.98;;
23470;SDS011;11908;50.806;4.424;2023-02-15T11:21:40;32.85;;;21.75;;
23470;SDS011;11908;50.806;4.424;2023-02-15T11:24:09;35.83;;;22.42;;
23470;SDS011;11908;50.806;4.424;2023-02-15T11:35:03;38.33;;;23.55;;
23470;SDS011;11908;50.806;4.424;2023-02-15T11:42:52;38.30;;;23.50;;
23470;SDS011;11908;50.806;4.424;2023-02-15T11:45:28;35.88;;;22.52;;
23470;SDS011;11908;50.806;4.424;2023-02-15T11:47:56;36.10;;;22.52;;
23470;SDS011;11908;50.806;4.424;2023-02-15T11:50:23;31.75;;;21.35;;
23470;SDS011;11908;50.806;4.424;2023-02-15T11:53:00;33.30;;;22.48;;
23470;SDS011;11908;50.806;4.424;2023-02-15T11:57:57;37.97;;;21.95;;
23470;SDS011;11908;50.806;4.424;2023-02-15T12:02:52;59.97;;;24.63;;
23470;SDS011;11908;50.806;4.424;2023-02-15T12:05:21;53.80;;;23.88;;
23470;SDS011;11908;50.806;4.424;2023-02-15T12:07:53;45.10;;;23.90;;
23470;SDS011;11908;50.806;4.424;2023-02-15T12:10:30;43.33;;;23.58;;
23470;SDS011;11908;50.806;4.424;2023-02-15T12:13:18;48.30;;;24.70;;
23470;SDS011;11908;50.806;4.424;2023-02-15T12:15:45;51.67;;;23.92;;
23470;SDS011;11908;50.806;4.424;2023-02-15T12:20:53;60.13;;;24.38;;
23470;SDS011;11908;50.806;4.424;2023-02-15T12:23:25;41.92;;;22.95;;
23470;SDS011;11908;50.806;4.424;2023-02-15T12:25:53;55.92;;;24.50;;
23470;SDS011;11908;50.806;4.424;2023-02-15T12:28:30;39.97;;;24.27;;
23470;SDS011;11908;50.806;4.424;2023-02-15T12:31:10;44.90;;;24.50;;
23470;SDS011;11908;50.806;4.424;2023-02-15T12:33:50;49.88;;;24.23;;
23470;SDS011;11908;50.806;4.424;2023-02-15T12:36:19;40.92;;;24.55;;
23470;SDS011;11908;50.806;4.424;2023-02-15T12:39:02;49.78;;;25.13;;
23470;SDS011;11908;50.806;4.424;2023-02-15T12:44:23;42.55;;;24.05;;
23470;SDS011;11908;50.806;4.424;2023-02-15T12:47:04;39.63;;;23.92;;
23470;SDS011;11908;50.806;4.424;2023-02-15T12:49:34;40.83;;;23.15;;
23470;SDS011;11908;50.806;4.424;2023-02-15T12:52:02;38.75;;;24.30;;
23470;SDS011;11908;50.806;4.424;2023-02-15T12:57:14;38.42;;;25.23;;
23470;SDS011;11908;50.806;4.424;2023-02-15T13:08:03;38.80;;;24.73;;
23470;SDS011;11908;50.806;4.424;2023-02-15T13:10:54;55.47;;;26.55;;
23470;SDS011;11908;50.806;4.424;2023-02-15T13:13:36;79.97;;;26.73;;
23470;SDS011;11908;50.806;4.424;2023-02-15T13:16:33;56.28;;;27.15;;
23470;SDS011;11908;50.806;4.424;2023-02-15T13:19:04;45.40;;;26.67;;
23470;SDS011;11908;50.806;4.424;2023-02-15T13:21:43;50.33;;;26.52;;
23470;SDS011;11908;50.806;4.424;2023-02-15T13:26:41;47.72;;;28.23;;
23470;SDS011;11908;50.806;4.424;2023-02-15T13:29:15;45.65;;;27.42;;
23470;SDS011;11908;50.806;4.424;2023-02-15T13:31:46;54.15;;;29.95;;
23470;SDS011;11908;50.806;4.424;2023-02-15T13:34:34;49.13;;;27.60;;
23470;SDS011;11908;50.806;4.424;2023-02-15T13:37:15;64.90;;;28.77;;
23470;SDS011;11908;50.806;4.424;2023-02-15T13:39:56;76.95;;;28.67;;
23470;SDS011;11908;50.806;4.424;2023-02-15T13:46:01;50.70;;;29.02;;
23470;SDS011;11908;50.806;4.424;2023-02-15T13:48:33;56.47;;;29.98;;
23470;SDS011;11908;50.806;4.424;2023-02-15T13:51:22;55.15;;;29.50;;
23470;SDS011;11908;50.806;4.424;2023-02-15T14:00:23;45.60;;;29.05;;
23470;SDS011;11908;50.806;4.424;2023-02-15T14:06:05;49.90;;;28.65;;
23470;SDS011;11908;50.806;4.424;2023-02-15T14:11:49;49.22;;;28.63;;
23470;SDS011;11908;50.806;4.424;2023-02-15T14:14:53;54.45;;;29.00;;
23470;SDS011;11908;50.806;4.424;2023-02-15T14:20:47;46.83;;;28.10;;
23470;SDS011;11908;50.806;4.424;2023-02-15T14:24:08;50.40;;;27.80;;
23470;SDS011;11908;50.806;4.424;2023-02-15T14:29:07;46.95;;;27.33;;
23470;SDS011;11908;50.806;4.424;2023-02-15T14:31:49;50.72;;;27.52;;
23470;SDS011;11908;50.806;4.424;2023-02-15T14:34:21;50.05;;;27.55;;
23470;SDS011;11908;50.806;4.424;2023-02-15T14:36:54;48.05;;;26.85;;
23470;SDS011;11908;50.806;4.424;2023-02-15T14:42:15;58.60;;;29.45;;
23470;SDS011;11908;50.806;4.424;2023-02-15T14:47:26;51.55;;;29.65;;
23470;SDS011;11908;50.806;4.424;2023-02-15T14:49:58;50.13;;;28.10;;
23470;SDS011;11908;50.806;4.424;2023-02-15T14:52:25;52.15;;;29.17;;
23470;SDS011;11908;50.806;4.424;2023-02-15T14:54:54;45.50;;;28.27;;
23470;SDS011;11908;50.806;4.424;2023-02-15T14:57:21;50.25;;;29.27;;
23470;SDS011;11908;50.806;4.424;2023-02-15T15:02:21;48.20;;;28.52;;
23470;SDS011;11908;50.806;4.424;2023-02-15T15:05:18;47.67;;;29.05;;
23470;SDS011;11908;50.806;4.424;2023-02-15T15:08:01;48.95;;;28.63;;
23470;SDS011;11908;50.806;4.424;2023-02-15T15:17:03;53.60;;;28.13;;
23470;SDS011;11908;50.806;4.424;2023-02-15T15:18:58;55.95;;;29.33;;
23470;SDS011;11908;50.806;4.424;2023-02-15T15:32:38;54.20;;;29.33;;
23470;SDS011;11908;50.806;4.424;2023-02-15T15:43:30;54.17;;;31.83;;
23470;SDS011;11908;50.806;4.424;2023-02-15T15:46:04;55.35;;;32.10;;
23470;SDS011;11908;50.806;4.424;2023-02-15T15:48:53;59.03;;;34.58;;
23470;SDS011;11908;50.806;4.424;2023-02-15T15:51:31;56.80;;;33.15;;
23470;SDS011;11908;50.806;4.424;2023-02-15T15:53:58;61.67;;;34.80;;
23470;SDS011;11908;50.806;4.424;2023-02-15T15:56:27;55.70;;;34.30;;
23470;SDS011;11908;50.806;4.424;2023-02-15T15:59:00;58.75;;;33.72;;
23470;SDS011;11908;50.806;4.424;2023-02-15T16:01:30;60.83;;;33.08;;
23470;SDS011;11908;50.806;4.424;2023-02-15T16:04:03;54.20;;;31.80;;
23470;SDS011;11908;50.806;4.424;2023-02-15T16:06:30;61.35;;;33.72;;
23470;SDS011;11908;50.806;4.424;2023-02-15T16:11:52;58.20;;;32.85;;
23470;SDS011;11908;50.806;4.424;2023-02-15T16:14:36;57.70;;;34.95;;
23470;SDS011;11908;50.806;4.424;2023-02-15T16:17:05;59.80;;;35.28;;
23470;SDS011;11908;50.806;4.424;2023-02-15T16:19:39;52.92;;;32.47;;
23470;SDS011;11908;50.806;4.424;2023-02-15T16:22:11;59.10;;;33.03;;
23470;SDS011;11908;50.806;4.424;2023-02-15T16:27:37;57.70;;;33.08;;
23470;SDS011;11908;50.806;4.424;2023-02-15T16:30:25;66.82;;;34.63;;
23470;SDS011;11908;50.806;4.424;2023-02-15T16:33:10;58.13;;;34.08;;
23470;SDS011;11908;50.806;4.424;2023-02-15T16:36:02;51.75;;;31.92;;
23470;SDS011;11908;50.806;4.424;2023-02-15T16:41:11;53.33;;;33.00;;
23470;SDS011;11908;50.806;4.424;2023-02-15T16:43:47;60.80;;;35.13;;
23470;SDS011;11908;50.806;4.424;2023-02-15T16:46:19;57.65;;;33.72;;
23470;SDS011;11908;50.806;4.424;2023-02-15T16:48:48;58.20;;;35.22;;
23470;SDS011;11908;50.806;4.424;2023-02-15T16:51:21;58.47;;;36.00;;
23470;SDS011;11908;50.806;4.424;2023-02-15T16:53:52;60.38;;;36.38;;
23470;SDS011;11908;50.806;4.424;2023-02-15T16:56:23;64.22;;;38.25;;
23470;SDS011;11908;50.806;4.424;2023-02-15T16:58:51;65.45;;;38.50;;
23470;SDS011;11908;50.806;4.424;2023-02-15T17:01:20;67.65;;;37.15;;
23470;SDS011;11908;50.806;4.424;2023-02-15T17:03:49;63.65;;;37.33;;
23470;SDS011;11908;50.806;4.424;2023-02-15T17:06:22;64.95;;;38.70;;
23470;SDS011;11908;50.806;4.424;2023-02-15T17:08:52;69.43;;;39.83;;
23470;SDS011;11908;50.806;4.424;2023-02-15T17:11:35;82.10;;;45.05;;
23470;SDS011;11908;50.806;4.424;2023-02-15T17:16:40;69.93;;;38.42;;
23470;SDS011;11908;50.806;4.424;2023-02-15T17:19:24;74.65;;;41.63;;
23470;SDS011;11908;50.806;4.424;2023-02-15T17:21:54;68.15;;;38.25;;
23470;SDS011;11908;50.806;4.424;2023-02-15T17:24:32;65.70;;;39.00;;
23470;SDS011;11908;50.806;4.424;2023-02-15T17:27:02;67.10;;;39.10;;
23470;SDS011;11908;50.806;4.424;2023-02-15T17:32:05;63.08;;;39.42;;
23470;SDS011;11908;50.806;4.424;2023-02-15T17:34:42;62.45;;;38.30;;
23470;SDS011;11908;50.806;4.424;2023-02-15T17:37:32;67.47;;;37.80;;
23470;SDS011;11908;50.806;4.424;2023-02-15T17:42:51;65.78;;;37.33;;
23470;SDS011;11908;50.806;4.424;2023-02-15T17:45:17;56.78;;;35.55;;
23470;SDS011;11908;50.806;4.424;2023-02-15T17:47:44;67.13;;;38.22;;
23470;SDS011;11908;50.806;4.424;2023-02-15T17:50:19;65.75;;;37.10;;
23470;SDS011;11908;50.806;4.424;2023-02-15T17:52:46;58.33;;;35.85;;
23470;SDS011;11908;50.806;4.424;2023-02-15T17:55:13;61.60;;;37.85;;
23470;SDS011;11908;50.806;4.424;2023-02-15T17:57:59;69.47;;;40.08;;
23470;SDS011;11908;50.806;4.424;2023-02-15T18:00:25;59.47;;;37.80;;
23470;SDS011;11908;50.806;4.424;2023-02-15T18:03:09;61.33;;;36.38;;
23470;SDS011;11908;50.806;4.424;2023-02-15T18:05:55;58.95;;;35.65;;
23470;SDS011;11908;50.806;4.424;2023-02-15T18:08:40;64.22;;;38.92;;
23470;SDS011;11908;50.806;4.424;2023-02-15T18:11:25;63.17;;;37.80;;
23470;SDS011;11908;50.806;4.424;2023-02-15T18:14:06;66.10;;;37.17;;
23470;SDS011;11908;50.806;4.424;2023-02-15T18:16:34;62.97;;;39.75;;